createdAt,value
2019-01-11T00:00:31.038Z,73.96
2019-01-11T00:02:57.024Z,73.80
2019-01-11T00:05:22.966Z,73.52
2019-01-11T00:07:48.957Z,73.63
2019-01-11T00:10:14.926Z,73.31
2019-01-11T00:12:41.177Z,73.27
2019-01-11T00:15:07.367Z,73.13
2019-01-11T00:17:33.322Z,72.84
2019-01-11T00:20:03.634Z,72.82
2019-01-11T00:22:29.603Z,72.84
2019-01-11T00:24:57.470Z,72.88
2019-01-11T00:27:23.626Z,72.85
2019-01-11T00:29:49.820Z,72.66
2019-01-11T00:32:15.774Z,72.29
2019-01-11T00:34:41.721Z,72.34
2019-01-11T00:37:07.700Z,72.31
2019-01-11T00:39:33.658Z,72.40
2019-01-11T00:41:59.622Z,72.52
2019-01-11T00:44:26.296Z,72.51
2019-01-11T00:46:52.287Z,72.88
2019-01-11T00:49:19.431Z,73.59
2019-01-11T00:51:45.426Z,74.10
2019-01-11T00:54:11.458Z,74.31
2019-01-11T00:56:38.586Z,74.18
2019-01-11T00:59:05.105Z,73.36
2019-01-11T01:01:31.048Z,72.98
2019-01-11T01:03:56.997Z,72.69
2019-01-11T01:06:23.519Z,72.29
2019-01-11T01:08:49.476Z,72.33
2019-01-11T01:11:15.421Z,72.13
2019-01-11T01:13:41.407Z,72.29
2019-01-11T01:16:07.356Z,72.16
2019-01-11T01:18:33.304Z,72.43
2019-01-11T01:20:59.494Z,72.42
2019-01-11T01:23:25.750Z,72.43
2019-01-11T01:25:52.215Z,72.56
2019-01-11T01:28:20.143Z,72.64
2019-01-11T01:30:46.098Z,72.83
2019-01-11T01:33:14.367Z,73.00
2019-01-11T01:35:40.358Z,73.04
2019-01-11T01:38:06.314Z,73.26
2019-01-11T01:40:32.342Z,73.30
2019-01-11T01:43:00.934Z,73.22
2019-01-11T01:45:26.969Z,73.29
2019-01-11T01:47:54.723Z,73.33
2019-01-11T01:50:20.758Z,73.41
2019-01-11T01:52:46.713Z,73.64
2019-01-11T01:55:14.183Z,73.77
2019-01-11T01:57:40.171Z,73.64
2019-01-11T02:00:09.823Z,73.76
2019-01-11T02:02:35.781Z,73.83
2019-01-11T02:05:02.684Z,73.85
2019-01-11T02:07:28.635Z,73.86
2019-01-11T02:09:54.595Z,73.82
2019-01-11T02:12:20.613Z,73.88
2019-01-11T02:14:46.556Z,73.99
2019-01-11T02:17:13.920Z,74.12
2019-01-11T02:19:39.926Z,74.18
2019-01-11T02:22:06.088Z,74.43
2019-01-11T02:24:32.246Z,74.39
2019-01-11T02:26:58.528Z,74.29
2019-01-11T02:29:24.888Z,74.33
2019-01-11T02:31:51.137Z,74.46
2019-01-11T02:34:17.151Z,74.58
2019-01-11T02:36:45.027Z,74.64
2019-01-11T02:39:10.964Z,74.67
2019-01-11T02:41:36.939Z,74.66
2019-01-11T02:44:03.936Z,74.60
2019-01-11T02:46:29.874Z,74.51
2019-01-11T02:48:55.874Z,74.56
2019-01-11T02:51:21.828Z,74.61
2019-01-11T02:53:47.784Z,74.40
2019-01-11T02:56:15.388Z,74.22
2019-01-11T02:58:41.357Z,74.21
2019-01-11T03:01:07.301Z,74.21
2019-01-11T03:03:34.783Z,74.03
2019-01-11T03:06:00.748Z,73.89
2019-01-11T03:08:27.520Z,73.96
2019-01-11T03:10:53.514Z,73.83
2019-01-11T03:13:21.366Z,73.87
2019-01-11T03:15:47.328Z,73.57
2019-01-11T03:18:13.338Z,73.32
2019-01-11T03:20:39.291Z,73.41
2019-01-11T03:23:05.252Z,73.42
2019-01-11T03:25:31.226Z,73.42
2019-01-11T03:27:57.211Z,73.32
2019-01-11T03:30:23.958Z,73.41
2019-01-11T03:32:51.850Z,73.55
2019-01-11T03:35:18.609Z,73.47
2019-01-11T03:37:46.280Z,73.33
2019-01-11T03:40:14.594Z,73.39
2019-01-11T03:42:40.543Z,73.51
2019-01-11T03:45:10.223Z,73.42
2019-01-11T03:47:36.303Z,73.46
2019-01-11T03:50:05.552Z,73.53
2019-01-11T03:52:31.498Z,73.43
2019-01-11T03:54:57.493Z,73.60
2019-01-11T03:57:25.258Z,73.68
2019-01-11T03:59:51.215Z,73.68
2019-01-11T04:02:17.237Z,73.71
2019-01-11T04:04:43.179Z,73.60
2019-01-11T04:07:09.135Z,73.46
2019-01-11T04:09:35.111Z,73.44
2019-01-11T04:12:01.076Z,73.43
2019-01-11T04:14:27.021Z,73.52
2019-01-11T04:16:53.012Z,73.38
2019-01-11T04:19:18.981Z,73.37
2019-01-11T04:21:46.832Z,73.41
2019-01-11T04:24:14.769Z,73.46
2019-01-11T04:26:40.732Z,73.55
2019-01-11T04:29:06.983Z,73.51
2019-01-11T04:31:32.980Z,73.40
2019-01-11T04:33:58.951Z,73.53
2019-01-11T04:36:24.918Z,73.57
2019-01-11T04:38:51.099Z,73.70
2019-01-11T04:41:17.051Z,73.71
2019-01-11T04:43:43.006Z,73.85
2019-01-11T04:46:09.669Z,73.93
2019-01-11T04:48:35.614Z,74.00
2019-01-11T04:51:03.574Z,74.05
2019-01-11T04:53:29.563Z,74.10
2019-01-11T04:55:55.544Z,74.06
2019-01-11T04:58:21.516Z,74.11
2019-01-11T05:00:47.743Z,74.30
2019-01-11T05:03:13.695Z,74.43
2019-01-11T05:05:39.646Z,74.51
2019-01-11T05:08:06.725Z,74.67
2019-01-11T05:10:32.672Z,74.71
2019-01-11T05:13:00.550Z,74.65
2019-01-11T05:15:28.331Z,74.89
2019-01-11T05:17:55.490Z,74.94
2019-01-11T05:20:21.432Z,75.10
2019-01-11T05:22:49.339Z,75.11
2019-01-11T05:25:17.286Z,75.10
2019-01-11T05:27:43.246Z,75.40
2019-01-11T05:30:14.779Z,75.46
2019-01-11T05:32:40.843Z,75.28
2019-01-11T05:35:08.091Z,75.30
2019-01-11T05:37:34.078Z,75.40
2019-01-11T05:40:01.529Z,75.51
2019-01-11T05:42:27.586Z,75.47
2019-01-11T05:44:54.679Z,75.66
2019-01-11T05:47:20.951Z,75.57
2019-01-11T05:49:46.892Z,75.57
2019-01-11T05:52:12.924Z,75.69
2019-01-11T05:54:38.876Z,75.67
2019-01-11T05:57:05.227Z,75.50
2019-01-11T05:59:31.239Z,75.66
2019-01-11T06:01:57.375Z,75.71
2019-01-11T06:04:30.823Z,75.71
2019-01-11T06:07:04.610Z,75.69
2019-01-11T06:09:30.564Z,75.62
2019-01-11T06:11:56.526Z,75.43
2019-01-11T06:14:22.548Z,75.48
2019-01-11T06:16:48.500Z,75.47
2019-01-11T06:19:14.455Z,75.49
2019-01-11T06:21:40.458Z,75.51
2019-01-11T06:24:07.413Z,75.62
2019-01-11T06:26:33.367Z,75.69
2019-01-11T06:28:59.365Z,75.91
2019-01-11T06:31:25.334Z,76.08
2019-01-11T06:33:51.306Z,76.05
2019-01-11T06:36:17.829Z,76.27
2019-01-11T06:38:43.779Z,76.41
2019-01-11T06:41:09.833Z,76.48
2019-01-11T06:43:35.838Z,76.68
2019-01-11T06:46:01.789Z,76.78
2019-01-11T06:48:31.055Z,76.92
2019-01-11T06:50:57.145Z,77.06
2019-01-11T06:53:23.257Z,77.19
2019-01-11T06:55:49.320Z,77.27
2019-01-11T06:58:15.335Z,77.57
2019-01-11T07:00:41.706Z,77.74
2019-01-11T07:03:07.655Z,78.09
2019-01-11T07:05:35.253Z,78.23
2019-01-11T07:08:01.201Z,78.50
2019-01-11T07:10:27.160Z,78.93
2019-01-11T07:12:53.217Z,78.87
2019-01-11T07:15:19.166Z,78.35
2019-01-11T07:17:45.447Z,78.20
2019-01-11T07:20:13.470Z,78.21
2019-01-11T07:22:39.761Z,78.00
2019-01-11T07:25:08.509Z,78.00
2019-01-11T07:27:36.419Z,78.06
2019-01-11T07:30:06.204Z,77.89
2019-01-11T07:32:32.661Z,77.77
2019-01-11T07:34:58.659Z,77.71
2019-01-11T07:37:24.611Z,77.58
2019-01-11T07:39:51.329Z,77.58
2019-01-11T07:42:17.345Z,77.58
2019-01-11T07:44:43.294Z,77.41
2019-01-11T07:47:09.256Z,77.34
2019-01-11T07:49:35.704Z,77.12
2019-01-11T07:52:05.252Z,77.20
2019-01-11T07:54:31.219Z,76.98
2019-01-11T07:56:57.660Z,76.83
2019-01-11T07:59:23.616Z,76.60
2019-01-11T08:01:49.766Z,76.44
2019-01-11T08:04:15.805Z,76.53
2019-01-11T08:06:41.760Z,76.33
2019-01-11T08:09:07.920Z,76.00
2019-01-11T08:11:33.911Z,75.93
2019-01-11T08:13:59.880Z,75.96
2019-01-11T08:16:25.822Z,76.09
2019-01-11T08:18:52.108Z,76.00
2019-01-11T08:21:18.056Z,75.82
2019-01-11T08:23:44.004Z,75.75
2019-01-11T08:26:10.041Z,75.79
2019-01-11T08:28:36.045Z,75.80
2019-01-11T08:31:02.211Z,75.61
2019-01-11T08:33:30.138Z,75.42
2019-01-11T08:35:56.171Z,75.34
2019-01-11T08:38:22.830Z,75.29
2019-01-11T08:40:49.190Z,75.27
2019-01-11T08:43:15.143Z,75.38
2019-01-11T08:45:41.509Z,75.33
2019-01-11T08:48:07.628Z,75.40
2019-01-11T08:50:33.669Z,75.56
2019-01-11T08:53:00.417Z,75.62
2019-01-11T08:55:28.327Z,75.67
2019-01-11T08:57:54.393Z,75.43
2019-01-11T09:00:20.365Z,75.26
2019-01-11T09:02:46.503Z,75.26
2019-01-11T09:05:12.852Z,75.42
2019-01-11T09:07:39.199Z,75.38
2019-01-11T09:10:09.036Z,75.29
2019-01-11T09:12:35.203Z,75.12
2019-01-11T09:15:02.268Z,75.00
2019-01-11T09:17:28.303Z,74.97
2019-01-11T09:19:54.253Z,74.95
2019-01-11T09:22:20.514Z,74.46
2019-01-11T09:24:48.410Z,74.57
2019-01-11T09:27:14.481Z,74.47
2019-01-11T09:29:40.468Z,74.51
2019-01-11T09:32:06.888Z,74.23
2019-01-11T09:34:33.144Z,74.07
2019-01-11T09:36:59.270Z,74.27
2019-01-11T09:39:25.269Z,74.29
2019-01-11T09:41:51.230Z,74.34
2019-01-11T09:44:19.181Z,74.15
2019-01-11T09:46:45.187Z,73.93
2019-01-11T09:49:11.138Z,74.01
2019-01-11T09:51:38.409Z,74.16
2019-01-11T09:54:05.227Z,74.36
2019-01-11T09:56:31.195Z,74.38
2019-01-11T09:58:57.158Z,74.49
2019-01-11T10:01:23.262Z,74.69
2019-01-11T10:03:49.222Z,74.98
2019-01-11T10:06:15.288Z,75.14
2019-01-11T10:08:41.284Z,75.25
2019-01-11T10:11:07.354Z,75.25
2019-01-11T10:13:33.563Z,75.41
2019-01-11T10:15:59.663Z,75.60
2019-01-11T10:18:26.015Z,75.71
2019-01-11T10:20:51.961Z,75.75
2019-01-11T10:23:18.389Z,75.73
2019-01-11T10:25:44.298Z,75.73
2019-01-11T10:28:10.274Z,75.60
2019-01-11T10:30:36.277Z,75.57
2019-01-11T10:33:02.432Z,75.56
2019-01-11T10:35:28.387Z,75.54
2019-01-11T10:37:54.434Z,75.71
2019-01-11T10:40:20.384Z,75.88
2019-01-11T10:42:46.420Z,76.06
2019-01-11T10:45:17.984Z,76.26
2019-01-11T10:47:43.938Z,76.60
2019-01-11T10:50:13.620Z,77.01
2019-01-11T10:52:40.780Z,76.86
2019-01-11T10:55:09.960Z,76.56
2019-01-11T10:57:35.919Z,76.56
2019-01-11T11:00:06.880Z,76.83
2019-01-11T11:02:32.850Z,76.76
2019-01-11T11:04:58.804Z,76.78
2019-01-11T11:07:24.956Z,76.95
2019-01-11T11:09:51.907Z,77.48
2019-01-11T11:12:17.887Z,77.33
2019-01-11T11:14:43.860Z,77.13
2019-01-11T11:17:09.833Z,77.16
2019-01-11T11:19:35.818Z,77.35
2019-01-11T11:22:02.739Z,77.40
2019-01-11T11:24:28.828Z,77.46
2019-01-11T11:26:54.765Z,77.62
2019-01-11T11:29:20.759Z,77.43
2019-01-11T11:31:46.719Z,77.33
2019-01-11T11:34:12.674Z,77.31
2019-01-11T11:36:38.672Z,77.31
2019-01-11T11:39:08.232Z,77.23
2019-01-11T11:41:34.191Z,77.26
2019-01-11T11:44:00.226Z,77.19
2019-01-11T11:46:26.183Z,76.91
2019-01-11T11:48:52.152Z,76.71
2019-01-11T11:51:18.136Z,76.60
2019-01-11T11:53:45.008Z,76.40
2019-01-11T11:56:10.961Z,76.31
2019-01-11T11:58:37.302Z,76.17
2019-01-11T12:01:05.373Z,75.97
2019-01-11T12:03:31.337Z,75.90
2019-01-11T12:05:59.272Z,75.08
2019-01-11T12:08:25.228Z,74.80
2019-01-11T12:10:51.471Z,75.07
2019-01-11T12:13:17.461Z,75.35
2019-01-11T12:15:43.408Z,75.55
2019-01-11T12:18:09.567Z,75.86
2019-01-11T12:20:36.060Z,76.08
2019-01-11T12:23:02.123Z,76.32
2019-01-11T12:25:28.219Z,76.71
2019-01-11T12:27:54.248Z,76.89
2019-01-11T12:30:20.224Z,77.07
2019-01-11T12:32:46.188Z,77.39
2019-01-11T12:35:12.574Z,77.55
2019-01-11T12:37:38.837Z,77.91
2019-01-11T12:40:08.012Z,78.31
2019-01-11T12:42:34.132Z,78.10
2019-01-11T12:45:04.224Z,78.32
2019-01-11T12:47:30.179Z,78.56
2019-01-11T12:49:57.000Z,78.73
2019-01-11T12:52:22.961Z,79.18
2019-01-11T12:54:49.885Z,79.25
2019-01-11T12:57:16.412Z,79.64
2019-01-11T12:59:42.669Z,79.87
2019-01-11T13:02:08.853Z,80.03
2019-01-11T13:04:34.875Z,79.92
2019-01-11T13:07:00.986Z,79.79
2019-01-11T13:09:27.003Z,80.17
2019-01-11T13:11:53.526Z,80.25
2019-01-11T13:14:19.690Z,80.41
2019-01-11T13:16:45.849Z,80.61
2019-01-11T13:19:12.144Z,80.78
2019-01-11T13:21:38.101Z,81.08
2019-01-11T13:24:04.451Z,81.19
2019-01-11T13:26:30.571Z,82.08
2019-01-11T13:28:57.450Z,81.53
2019-01-11T13:31:23.732Z,81.44
2019-01-11T13:33:49.762Z,81.62
2019-01-11T13:36:17.615Z,81.97
2019-01-11T13:38:43.575Z,82.07
2019-01-11T13:41:11.996Z,81.87
2019-01-11T13:43:37.949Z,82.32
2019-01-11T13:46:04.095Z,82.55
2019-01-11T13:48:31.232Z,82.92
2019-01-11T13:50:57.263Z,83.05
2019-01-11T13:53:23.217Z,83.40
2019-01-11T13:55:49.344Z,83.17
2019-01-11T13:58:15.495Z,83.60
2019-01-11T14:00:41.470Z,83.62
2019-01-11T14:03:07.550Z,83.86
2019-01-11T14:05:33.587Z,84.33
2019-01-11T14:07:59.833Z,84.75
2019-01-11T14:10:26.027Z,84.18
2019-01-11T14:12:52.014Z,83.94
2019-01-11T14:15:18.091Z,84.17
2019-01-11T14:17:44.111Z,84.47
2019-01-11T14:20:10.870Z,84.42
2019-01-11T14:22:37.244Z,84.80
2019-01-11T14:25:08.387Z,84.89
2019-01-11T14:27:34.328Z,84.76
2019-01-11T14:30:00.281Z,84.92
2019-01-11T14:32:26.265Z,85.20
2019-01-11T14:34:52.241Z,85.45
2019-01-11T14:37:18.207Z,85.66
2019-01-11T14:39:44.219Z,85.61
2019-01-11T14:42:10.372Z,85.79
2019-01-11T14:44:36.331Z,86.04
2019-01-11T14:47:02.441Z,86.14
2019-01-11T14:49:28.390Z,85.96
2019-01-11T14:51:54.357Z,86.32
2019-01-11T14:54:20.343Z,86.58
2019-01-11T14:56:46.371Z,86.92
2019-01-11T14:59:12.310Z,86.81
2019-01-11T15:01:39.684Z,86.51
2019-01-11T15:04:05.700Z,86.44
2019-01-11T15:06:31.651Z,86.43
2019-01-11T15:08:57.656Z,86.57
2019-01-11T15:11:23.618Z,86.67
2019-01-11T15:13:52.387Z,87.36
2019-01-11T15:16:18.479Z,87.39
2019-01-11T15:18:44.507Z,87.27
2019-01-11T15:21:10.484Z,87.42
2019-01-11T15:23:36.523Z,87.59
2019-01-11T15:26:02.876Z,87.69
2019-01-11T15:28:28.842Z,87.84
2019-01-11T15:30:55.443Z,88.23
2019-01-11T15:33:21.415Z,88.31
2019-01-11T15:35:48.531Z,88.59
2019-01-11T15:38:18.161Z,88.85
2019-01-11T15:40:44.150Z,88.98
2019-01-11T15:43:10.300Z,88.85
2019-01-11T15:45:36.436Z,88.82
2019-01-11T15:48:02.704Z,89.01
2019-01-11T15:50:45.118Z,89.19
2019-01-11T15:53:11.094Z,89.24
2019-01-11T15:55:37.104Z,89.62
2019-01-11T15:58:04.107Z,89.75
2019-01-11T16:00:30.360Z,89.90
2019-01-11T16:02:57.232Z,89.76
2019-01-11T16:05:23.258Z,89.62
2019-01-11T16:07:50.761Z,89.73
2019-01-11T16:10:18.891Z,89.61
2019-01-11T16:12:45.881Z,89.50
2019-01-11T16:15:18.506Z,89.37
2019-01-11T16:17:46.873Z,89.52
2019-01-11T16:20:14.981Z,89.53
2019-01-11T16:22:41.344Z,89.60
2019-01-11T16:25:09.212Z,89.79
2019-01-11T16:27:39.488Z,89.79
2019-01-11T16:30:13.824Z,89.93
2019-01-11T16:32:39.994Z,90.07
2019-01-11T16:35:06.454Z,90.34
2019-01-11T16:37:32.551Z,90.40
2019-01-11T16:39:58.811Z,90.91
2019-01-11T16:42:24.774Z,90.75
2019-01-11T16:44:50.754Z,90.40
2019-01-11T16:47:17.795Z,90.23
2019-01-11T16:49:45.917Z,90.26
2019-01-11T16:52:15.285Z,90.29
2019-01-11T16:54:39.752Z,90.44
2019-01-11T16:57:05.728Z,90.65
2019-01-11T16:59:31.893Z,90.66
2019-01-11T17:01:58.009Z,90.59
2019-01-11T17:04:24.014Z,90.40
2019-01-11T17:06:49.972Z,90.43
2019-01-11T17:09:15.996Z,90.38
2019-01-11T17:11:42.000Z,90.20
2019-01-11T17:14:08.012Z,90.29
2019-01-11T17:16:34.005Z,90.26
2019-01-11T17:19:00.271Z,89.99
2019-01-11T17:21:26.236Z,89.87
2019-01-11T17:23:53.496Z,89.81
2019-01-11T17:26:19.719Z,90.07
2019-01-11T17:28:46.044Z,90.15
2019-01-11T17:31:12.087Z,90.20
2019-01-11T17:33:38.243Z,90.25
2019-01-11T17:36:04.879Z,90.24
2019-01-11T17:38:30.895Z,90.31
2019-01-11T17:40:57.077Z,90.36
2019-01-11T17:43:23.044Z,90.24
2019-01-11T17:45:49.466Z,90.30
2019-01-11T17:48:15.436Z,90.55
2019-01-11T17:50:41.396Z,90.75
2019-01-11T17:53:07.432Z,90.21
2019-01-11T17:55:35.572Z,89.80
2019-01-11T17:58:01.748Z,89.83
2019-01-11T18:00:28.736Z,89.89
2019-01-11T18:02:56.067Z,89.98
2019-01-11T18:05:22.035Z,89.99
2019-01-11T18:07:48.147Z,89.92
2019-01-11T18:10:14.314Z,89.89
2019-01-11T18:12:40.570Z,89.90
2019-01-11T18:15:12.475Z,89.76
2019-01-11T18:17:38.432Z,89.76
2019-01-11T18:20:13.084Z,89.87
2019-01-11T18:22:39.194Z,90.09
2019-01-11T18:25:05.833Z,89.57
2019-01-11T18:27:32.039Z,89.16
2019-01-11T18:29:58.030Z,89.05
2019-01-11T18:32:23.999Z,89.03
2019-01-11T18:34:49.960Z,88.89
2019-01-11T18:37:16.063Z,88.99
2019-01-11T18:39:42.443Z,88.96
2019-01-11T18:42:08.421Z,89.02
2019-01-11T18:44:34.790Z,88.98
2019-01-11T18:47:00.792Z,88.91
2019-01-11T18:49:26.748Z,88.88
2019-01-11T18:51:52.814Z,88.81
2019-01-11T18:54:18.809Z,88.72
2019-01-11T18:56:44.786Z,88.57
2019-01-11T18:59:13.675Z,88.41
2019-01-11T19:01:39.714Z,88.30
2019-01-11T19:04:05.678Z,88.17
2019-01-11T19:06:31.686Z,88.18
2019-01-11T19:08:57.688Z,88.15
2019-01-11T19:11:23.827Z,87.97
2019-01-11T19:13:49.816Z,87.88
2019-01-11T19:16:15.955Z,87.75
2019-01-11T19:18:41.931Z,87.46
2019-01-11T19:21:10.217Z,87.31
2019-01-11T19:23:36.355Z,87.32
2019-01-11T19:26:02.947Z,87.50
2019-01-11T19:28:28.946Z,87.67
2019-01-11T19:30:54.953Z,87.78
2019-01-11T19:33:21.035Z,87.86
2019-01-11T19:35:47.044Z,88.03
2019-01-11T19:38:12.994Z,88.24
2019-01-11T19:40:38.952Z,88.45
2019-01-11T19:43:05.036Z,88.74
2019-01-11T19:45:30.994Z,88.94
2019-01-11T19:47:57.506Z,89.29
2019-01-11T19:50:24.083Z,89.30
2019-01-11T19:52:52.417Z,89.29
2019-01-11T19:55:18.911Z,89.23
2019-01-11T19:57:45.062Z,89.16
2019-01-11T20:00:15.060Z,89.13
2019-01-11T20:02:41.292Z,89.18
2019-01-11T20:05:08.764Z,89.41
2019-01-11T20:07:34.939Z,89.70
2019-01-11T20:10:05.963Z,89.98
2019-01-11T20:12:32.042Z,90.12
2019-01-11T20:15:00.215Z,90.28
2019-01-11T20:17:26.288Z,90.40
2019-01-11T20:19:52.245Z,90.46
2019-01-11T20:22:18.225Z,90.68
2019-01-11T20:24:48.355Z,90.77
2019-01-11T20:27:14.721Z,90.88
2019-01-11T20:29:40.907Z,91.02
2019-01-11T20:32:07.027Z,91.23
2019-01-11T20:34:33.492Z,91.41
2019-01-11T20:37:03.279Z,91.60
2019-01-11T20:39:29.392Z,91.65
2019-01-11T20:41:55.492Z,91.86
2019-01-11T20:44:21.458Z,92.03
2019-01-11T20:46:47.596Z,92.16
2019-01-11T20:49:14.405Z,92.29
2019-01-11T20:51:40.377Z,92.40
2019-01-11T20:54:06.584Z,92.58
2019-01-11T20:56:33.160Z,92.69
2019-01-11T20:58:59.135Z,92.75
2019-01-11T21:01:25.230Z,92.77
2019-01-11T21:03:51.785Z,92.84
2019-01-11T21:06:17.965Z,92.96
2019-01-11T21:08:43.998Z,92.99
2019-01-11T21:11:09.967Z,93.08
2019-01-11T21:13:35.940Z,93.14
2019-01-11T21:16:03.374Z,93.18
2019-01-11T21:18:29.643Z,93.27
2019-01-11T21:20:55.617Z,93.29
2019-01-11T21:23:22.320Z,93.33
2019-01-11T21:25:51.072Z,93.34
2019-01-11T21:28:17.056Z,93.34
2019-01-11T21:30:43.397Z,93.34
2019-01-11T21:33:09.404Z,93.36
2019-01-11T21:35:35.396Z,93.36
2019-01-11T21:38:01.417Z,93.35
2019-01-11T21:40:27.597Z,93.33
2019-01-11T21:42:53.876Z,93.30
2019-01-11T21:45:21.092Z,93.31
2019-01-11T21:47:47.362Z,93.54
2019-01-11T21:50:15.966Z,94.14
2019-01-11T21:52:42.112Z,94.11
2019-01-11T21:55:09.086Z,93.54
2019-01-11T21:57:35.048Z,93.15
2019-01-11T22:00:01.467Z,92.98
2019-01-11T22:02:27.418Z,92.91
2019-01-11T22:04:53.810Z,92.92
2019-01-11T22:07:19.916Z,92.92
2019-01-11T22:09:45.899Z,92.89
2019-01-11T22:12:13.043Z,92.96
2019-01-11T22:14:39.072Z,93.02
2019-01-11T22:17:05.285Z,93.10
2019-01-11T22:19:31.248Z,93.19
2019-01-11T22:21:57.443Z,93.18
2019-01-11T22:24:23.398Z,93.17
2019-01-11T22:26:49.504Z,93.22
2019-01-11T22:29:17.481Z,93.26
2019-01-11T22:31:43.480Z,93.25
2019-01-11T22:34:09.593Z,93.36
2019-01-11T22:36:35.615Z,93.28
2019-01-11T22:39:02.592Z,93.19
2019-01-11T22:41:28.969Z,93.06
2019-01-11T22:43:54.955Z,92.88
2019-01-11T22:46:20.919Z,92.74
2019-01-11T22:48:46.877Z,92.59
2019-01-11T22:51:13.695Z,92.46
2019-01-11T22:53:39.658Z,92.38
2019-01-11T22:56:05.609Z,92.31
2019-01-11T22:58:31.644Z,92.30
2019-01-11T23:01:01.399Z,92.38
2019-01-11T23:03:31.155Z,92.50
2019-01-11T23:06:08.896Z,93.07
2019-01-11T23:08:29.836Z,92.87
2019-01-11T23:11:29.702Z,92.62
2019-01-11T23:13:55.656Z,92.41
2019-01-11T23:16:25.409Z,92.38
2019-01-11T23:18:53.921Z,92.36
2019-01-11T23:21:20.385Z,92.37
2019-01-11T23:23:46.360Z,92.40
2019-01-11T23:26:12.368Z,92.40
2019-01-11T23:28:38.918Z,92.36
2019-01-11T23:31:05.679Z,92.29
2019-01-11T23:33:32.105Z,92.28
2019-01-11T23:35:58.393Z,92.26
2019-01-11T23:38:24.662Z,92.29
2019-01-11T23:40:50.834Z,92.34
2019-01-11T23:43:16.799Z,92.37
2019-01-11T23:45:42.883Z,92.43
2019-01-11T23:48:08.868Z,92.54
2019-01-11T23:50:34.827Z,92.61
2019-01-11T23:53:00.873Z,92.67
2019-01-11T23:55:27.181Z,92.66
2019-01-11T23:57:53.127Z,92.68
